Time;durP1;ratioP1;P1;durP2;ratioP2;P2;SDS_P1;SDS_P2;PMS_P1;PMS_P2;Temp;Humidity;BMP_temperature;BMP_pressure;BME280_temperature;BME280_humidity;BME280_pressure;Samples;Min_cycle;Max_cycle;Signal;HPM_P1;HPM_P2
2021/01/27 00:00:26;;;;;;;6.65;4.72;;;;;;;3.04;57.11;99809.34;1686731;83;21134;-41
2021/01/27 00:02:54;;;;;;;9.38;5.20;;;;;;;3.03;56.99;99812.44;1677478;83;21200;-39
2021/01/27 00:05:30;;;;;;;7.72;5.03;;;;;;;2.99;57.02;99811.29;1678379;83;22097;-40
2021/01/27 00:07:58;;;;;;;5.97;4.60;;;;;;;2.95;57.08;99809.24;1692635;83;21252;-38
2021/01/27 00:10:27;;;;;;;7.15;4.55;;;;;;;2.94;57.19;99813.23;1685213;83;21174;-40
2021/01/27 00:12:55;;;;;;;6.03;4.62;;;;;;;2.96;57.27;99815.36;1679896;83;21189;-39
2021/01/27 00:15:28;;;;;;;7.03;5.37;;;;;;;2.99;57.22;99821.83;1695133;81;21598;-38
2021/01/27 00:17:56;;;;;;;6.75;4.30;;;;;;;3.00;57.23;99823.56;1676078;83;21193;-37
2021/01/27 00:20:25;;;;;;;7.50;5.12;;;;;;;2.99;57.34;99825.78;1704671;83;21595;-39
2021/01/27 00:22:53;;;;;;;7.22;5.47;;;;;;;2.99;57.37;99824.46;1683831;83;21390;-38
2021/01/27 00:25:25;;;;;;;6.60;4.80;;;;;;;2.97;57.30;99824.54;1709981;81;21596;-36
2021/01/27 00:27:53;;;;;;;5.87;4.08;;;;;;;2.93;57.20;99822.07;1684558;83;21213;-42
2021/01/27 00:30:25;;;;;;;6.30;4.95;;;;;;;2.88;57.13;99819.60;1701769;82;21601;-42
2021/01/27 00:32:54;;;;;;;9.83;5.12;;;;;;;2.84;57.18;99814.50;1705856;82;21193;-43
2021/01/27 00:35:29;;;;;;;7.12;4.97;;;;;;;2.79;57.36;99812.88;1684630;83;21708;-42
2021/01/27 00:38:00;;;;;;;6.42;4.28;;;;;;;2.75;57.32;99811.77;1710960;81;21291;-43
2021/01/27 00:40:27;;;;;;;7.22;5.22;;;;;;;2.72;57.37;99810.53;1677730;83;21192;-41
2021/01/27 00:42:55;;;;;;;7.97;4.65;;;;;;;2.68;57.42;99803.22;1665657;83;21201;-40
2021/01/27 00:45:23;;;;;;;8.10;4.42;;;;;;;2.70;57.49;99799.23;1716374;82;21822;-40
2021/01/27 00:47:50;;;;;;;7.72;4.87;;;;;;;2.71;57.43;99788.62;1683086;83;21169;-41
2021/01/27 00:50:18;;;;;;;6.97;4.55;;;;;;;2.67;57.32;99790.10;1694683;83;21327;-39
2021/01/27 00:52:48;;;;;;;6.45;4.47;;;;;;;2.65;57.51;99785.38;1659298;83;21346;-40
2021/01/27 00:55:19;;;;;;;7.42;5.15;;;;;;;2.66;57.62;99781.81;1649790;84;21185;-41
2021/01/27 00:57:48;;;;;;;5.87;4.67;;;;;;;2.66;57.69;99783.98;1700115;82;21213;-41
2021/01/27 01:00:34;;;;;;;6.55;4.55;;;;;;;2.66;57.58;99785.30;1696722;82;21160;-38
2021/01/27 01:03:04;;;;;;;8.43;5.35;;;;;;;2.69;57.57;99787.81;1667443;84;21176;-39
2021/01/27 01:05:38;;;;;;;9.78;6.45;;;;;;;2.73;57.68;99788.11;1688386;82;21180;-40
2021/01/27 01:08:10;;;;;;;9.05;5.90;;;;;;;2.76;57.87;99784.03;1696981;83;21185;-36
2021/01/27 01:10:41;;;;;;;7.58;4.87;;;;;;;2.79;57.97;99787.02;1700906;82;21298;-42
2021/01/27 01:13:16;;;;;;;6.58;4.80;;;;;;;2.80;58.21;99783.48;1692270;82;21673;-37
2021/01/27 01:15:43;;;;;;;9.48;5.20;;;;;;;2.76;57.57;99786.67;1689804;82;21751;-41
2021/01/27 01:18:11;;;;;;;6.83;4.55;;;;;;;2.75;57.60;99786.75;1691266;82;21159;-39
2021/01/27 01:20:40;;;;;;;8.08;5.28;;;;;;;2.73;57.52;99780.21;1694972;83;21189;-40
2021/01/27 01:23:08;;;;;;;7.75;5.17;;;;;;;2.72;57.51;99782.45;1687863;82;21201;-40
2021/01/27 01:25:36;;;;;;;7.10;5.10;;;;;;;2.72;57.52;99778.50;1694332;82;21190;-40
2021/01/27 01:28:04;;;;;;;7.60;5.65;;;;;;;2.73;57.57;99778.89;1702526;82;21177;-41
2021/01/27 01:30:41;;;;;;;6.05;4.58;;;;;;;2.71;57.46;99778.55;1704426;83;21131;-40
2021/01/27 01:33:18;;;;;;;5.85;4.40;;;;;;;2.71;57.46;99774.14;1704562;83;21320;-40
2021/01/27 01:35:47;;;;;;;8.13;5.78;;;;;;;2.71;57.44;99769.33;1697198;82;21200;-42
2021/01/27 01:38:15;;;;;;;7.12;4.95;;;;;;;2.69;57.54;99769.84;1697502;82;21180;-41
2021/01/27 01:40:45;;;;;;;7.17;4.87;;;;;;;2.65;57.50;99769.58;1689696;82;21342;-42
2021/01/27 01:43:32;;;;;;;7.83;4.55;;;;;;;2.65;57.57;99763.00;1689795;82;21840;-40
2021/01/27 01:46:06;;;;;;;7.15;5.05;;;;;;;2.64;57.54;99759.94;1693647;82;21590;-41
2021/01/27 01:48:38;;;;;;;6.87;4.87;;;;;;;2.64;57.55;99761.26;1700756;82;21205;-39
2021/01/27 01:51:23;;;;;;;7.08;4.92;;;;;;;2.65;57.75;99754.63;1705671;82;21182;-41
2021/01/27 01:53:53;;;;;;;7.62;5.60;;;;;;;2.66;57.57;99751.53;1682391;83;21324;-41
2021/01/27 01:56:25;;;;;;;6.08;4.97;;;;;;;2.64;57.54;99750.27;1689158;83;21185;-41
2021/01/27 01:58:54;;;;;;;6.78;4.85;;;;;;;2.63;57.51;99750.34;1684094;83;21339;-39
2021/01/27 02:01:22;;;;;;;9.03;6.47;;;;;;;2.61;57.54;99745.12;1688841;83;21208;-38
2021/01/27 02:03:50;;;;;;;6.78;4.60;;;;;;;2.57;57.58;99739.12;1688407;83;21142;-39
2021/01/27 02:06:18;;;;;;;7.50;4.80;;;;;;;2.56;57.67;99735.22;1681504;83;21544;-38
2021/01/27 02:08:51;;;;;;;5.87;4.20;;;;;;;2.53;57.69;99726.13;1678505;83;21205;-40
2021/01/27 02:11:30;;;;;;;8.70;5.78;;;;;;;2.50;57.79;99726.25;1677383;84;21187;-42
2021/01/27 02:14:18;;;;;;;7.47;5.25;;;;;;;2.49;57.91;99731.09;1685657;83;21137;-39
2021/01/27 02:17:03;;;;;;;10.10;5.53;;;;;;;2.50;57.98;99726.25;1677459;84;21142;-39
2021/01/27 02:20:20;;;;;;;6.75;5.05;;;;;;;2.52;57.97;99727.02;1688190;83;21315;-41
2021/01/27 02:23:14;;;;;;;7.20;4.72;;;;;;;2.52;57.97;99723.08;1682485;83;21170;-39
2021/01/27 02:26:02;;;;;;;7.97;6.05;;;;;;;2.53;57.96;99728.77;1682403;83;21168;-42
2021/01/27 02:28:38;;;;;;;8.58;6.00;;;;;;;2.50;58.08;99726.25;1692101;83;21197;-39
2021/01/27 02:31:14;;;;;;;7.45;5.28;;;;;;;2.50;58.14;99731.52;1688170;83;21169;-39
2021/01/27 02:33:54;;;;;;;8.85;5.62;;;;;;;2.49;58.28;99732.41;1690777;83;21163;-39
2021/01/27 02:36:30;;;;;;;10.23;5.95;;;;;;;2.48;58.39;99728.08;1692772;83;21150;-39
2021/01/27 02:39:29;;;;;;;7.80;5.80;;;;;;;2.48;58.37;99728.08;1675563;83;21189;-40
2021/01/27 02:42:19;;;;;;;6.83;4.80;;;;;;;2.46;58.58;99732.53;1687148;83;21173;-39
2021/01/27 02:45:01;;;;;;;8.28;5.58;;;;;;;2.44;58.83;99735.20;1694256;83;21253;-37
2021/01/27 02:47:40;;;;;;;8.90;6.17;;;;;;;2.44;59.00;99730.41;1697191;82;21886;-41
2021/01/27 02:50:12;;;;;;;9.25;6.05;;;;;;;2.43;59.18;99731.33;1683981;84;21206;-41
2021/01/27 02:52:47;;;;;;;9.10;5.83;;;;;;;2.44;59.38;99733.04;1661841;83;21153;-41
2021/01/27 02:55:21;;;;;;;8.25;5.50;;;;;;;2.42;59.29;99728.28;1689326;82;21674;-38
2021/01/27 02:57:57;;;;;;;8.50;5.85;;;;;;;2.43;59.43;99728.70;1670348;84;21462;-41
2021/01/27 03:00:34;;;;;;;9.10;5.53;;;;;;;2.43;59.44;99727.39;1699798;82;21644;-39
2021/01/27 03:03:21;;;;;;;7.95;5.58;;;;;;;2.36;59.34;99724.96;1690232;82;21176;-39
2021/01/27 03:05:59;;;;;;;8.83;5.92;;;;;;;2.31;59.37;99725.59;1713799;81;21158;-40
2021/01/27 03:08:38;;;;;;;9.70;6.58;;;;;;;2.30;59.50;99719.09;1803288;78;24018;-40
2021/01/27 03:11:15;;;;;;;10.75;6.60;;;;;;;2.22;59.50;99721.11;1780124;79;21133;-40
2021/01/27 03:13:44;;;;;;;9.60;7.15;;;;;;;2.19;59.56;99719.45;1761139;79;21133;-40
2021/01/27 03:16:17;;;;;;;9.78;7.35;;;;;;;2.20;59.49;99717.23;1721047;81;21570;-40
2021/01/27 03:18:51;;;;;;;8.55;6.75;;;;;;;2.14;59.61;99710.44;1716784;83;21165;-42
2021/01/27 03:21:22;;;;;;;10.90;7.12;;;;;;;2.12;59.64;99707.45;1712276;81;21170;-43
2021/01/27 03:23:55;;;;;;;9.68;6.80;;;;;;;2.12;59.67;99711.41;1739570;81;21161;-39
2021/01/27 03:26:29;;;;;;;10.30;6.28;;;;;;;2.11;59.66;99707.04;1721988;82;21193;-39
2021/01/27 03:29:01;;;;;;;8.95;7.00;;;;;;;2.04;59.71;99698.95;1723582;82;21632;-38
2021/01/27 03:31:29;;;;;;;9.13;6.70;;;;;;;1.93;59.97;99693.63;1724508;82;21284;-38
2021/01/27 03:34:04;;;;;;;8.40;6.35;;;;;;;1.87;60.15;99696.48;1717192;82;21196;-40
2021/01/27 03:36:36;;;;;;;10.43;7.60;;;;;;;1.81;60.37;99701.09;1724395;82;21125;-40
2021/01/27 03:39:04;;;;;;;10.95;7.47;;;;;;;1.79;60.54;99703.80;1676970;82;21149;-40
2021/01/27 03:41:35;;;;;;;9.75;7.28;;;;;;;1.81;60.67;99705.03;1718388;82;21159;-40
2021/01/27 03:44:22;;;;;;;9.30;6.47;;;;;;;1.85;60.83;99703.56;1720899;81;21170;-42
2021/01/27 03:47:26;;;;;;;10.70;6.97;;;;;;;1.96;61.02;99712.38;1794163;78;23082;-37
2021/01/27 03:50:19;;;;;;;9.75;7.60;;;;;;;1.99;61.10;99724.56;1773152;79;21145;-41
2021/01/27 03:52:57;;;;;;;8.10;5.95;;;;;;;2.03;61.30;99722.24;1763206;78;21651;-40
2021/01/27 03:55:45;;;;;;;8.35;5.83;;;;;;;2.10;61.34;99727.69;1768112;80;21760;-38
2021/01/27 03:58:32;;;;;;;9.40;6.95;;;;;;;2.15;61.20;99723.98;1753421;80;21408;-39
2021/01/27 04:01:10;;;;;;;8.75;6.33;;;;;;;2.21;61.05;99725.98;1737027;81;21580;-36
2021/01/27 04:03:38;;;;;;;8.23;6.15;;;;;;;2.21;60.95;99729.47;1723414;80;21172;-37
2021/01/27 04:06:06;;;;;;;8.98;6.92;;;;;;;2.20;60.98;99723.81;1731182;81;21192;-35
2021/01/27 04:08:34;;;;;;;9.15;5.83;;;;;;;2.19;60.95;99715.97;1726090;81;21467;-38
2021/01/27 04:11:03;;;;;;;9.25;6.92;;;;;;;2.19;61.08;99719.45;1731302;81;21625;-38
2021/01/27 04:13:32;;;;;;;8.53;5.72;;;;;;;2.19;61.14;99718.13;1742908;81;21133;-38
2021/01/27 04:16:00;;;;;;;9.20;6.10;;;;;;;2.18;61.22;99723.01;1725419;81;21671;-38
2021/01/27 04:18:28;;;;;;;8.45;5.87;;;;;;;2.15;61.25;99720.03;1728085;81;21196;-37
2021/01/27 04:20:56;;;;;;;8.68;5.53;;;;;;;2.14;61.33;99716.12;1696101;83;22194;-38
2021/01/27 04:23:24;;;;;;;8.08;5.70;;;;;;;2.13;61.48;99724.48;1674270;82;21181;-39
2021/01/27 04:25:51;;;;;;;7.62;5.42;;;;;;;2.12;61.70;99723.24;1692765;83;21166;-40
2021/01/27 04:28:19;;;;;;;9.48;6.22;;;;;;;2.10;61.72;99725.91;1700892;83;21628;-40
2021/01/27 04:30:47;;;;;;;10.15;6.10;;;;;;;2.10;61.72;99725.06;1690116;83;21173;-44
2021/01/27 04:33:15;;;;;;;9.05;6.47;;;;;;;2.08;61.72;99726.88;1671434;84;21197;-40
2021/01/27 04:35:43;;;;;;;9.35;6.65;;;;;;;2.07;61.64;99733.07;1686590;84;21157;-39
2021/01/27 04:38:11;;;;;;;10.03;5.90;;;;;;;2.05;61.63;99737.06;1700345;84;21636;-38
2021/01/27 04:40:42;;;;;;;8.93;6.40;;;;;;;2.02;61.72;99735.00;1691575;84;21165;-42
2021/01/27 04:43:21;;;;;;;;;;;;;;;2.01;61.73;99736.75;1683249;84;21238;-40
2021/01/27 04:45:54;;;;;;;9.55;6.78;;;;;;;1.97;61.76;99733.84;1675593;84;20163;-39
2021/01/27 04:48:45;;;;;;;11.60;7.72;;;;;;;1.96;61.82;99730.80;1689404;84;21184;-39
2021/01/27 04:51:15;;;;;;;;;;;;;;;1.98;61.98;99737.33;1690311;84;21159;-39
2021/01/27 04:54:05;;;;;;;10.80;7.17;;;;;;;1.97;61.92;99737.79;1665569;84;20182;-39
2021/01/27 04:57:08;;;;;;;12.30;7.53;;;;;;;1.99;61.98;99741.66;1763984;79;22983;-41
2021/01/27 04:59:59;;;;;;;13.22;8.13;;;;;;;1.94;62.01;99745.33;1723429;80;21564;-54
2021/01/27 05:02:58;;;;;;;13.08;7.87;;;;;;;1.96;62.00;99749.20;1716711;82;21267;-42
2021/01/27 05:05:35;;;;;;;10.93;7.35;;;;;;;1.96;62.02;99758.41;1716792;82;21153;-39
2021/01/27 05:08:23;;;;;;;13.60;7.40;;;;;;;1.94;62.11;99752.34;1715413;83;21888;-40
2021/01/27 05:10:55;;;;;;;11.65;7.95;;;;;;;1.92;62.25;99753.72;1719298;82;21423;-42
2021/01/27 05:13:35;;;;;;;13.35;8.10;;;;;;;1.92;62.34;99749.78;1712850;82;21130;-41
2021/01/27 05:16:10;;;;;;;16.93;9.70;;;;;;;1.92;62.44;99755.50;1707354;82;21162;-40
2021/01/27 05:18:38;;;;;;;17.50;9.65;;;;;;;1.91;62.57;99753.30;1639301;86;21687;-41
2021/01/27 05:21:05;;;;;;;20.97;11.20;;;;;;;1.92;62.67;99768.65;1673252;84;21161;-39
2021/01/27 05:23:33;;;;;;;15.85;9.90;;;;;;;1.92;62.75;99768.65;1664218;84;21193;-41
2021/01/27 05:26:10;;;;;;;17.23;11.28;;;;;;;1.94;62.85;99760.23;1668069;84;21162;-39
2021/01/27 05:28:40;;;;;;;24.30;10.80;;;;;;;1.93;62.90;99759.38;1664618;84;21304;-41
2021/01/27 05:31:08;;;;;;;17.60;11.45;;;;;;;1.94;62.94;99759.80;1658077;85;21184;-41
2021/01/27 05:33:43;;;;;;;18.37;10.60;;;;;;;1.92;63.04;99764.24;1672712;83;22138;-40
2021/01/27 05:36:26;;;;;;;18.82;10.98;;;;;;;1.90;63.15;99770.00;1669535;84;21149;-41
2021/01/27 05:39:11;;;;;;;13.15;7.60;;;;;;;1.90;63.22;99767.84;1672007;83;21169;-39
2021/01/27 05:41:38;;;;;;;10.03;6.70;;;;;;;1.88;63.38;99770.51;1672220;84;21176;-41
2021/01/27 05:44:11;;;;;;;10.38;7.47;;;;;;;1.87;63.47;99767.95;1669670;84;21197;-41
2021/01/27 05:46:39;;;;;;;10.13;7.30;;;;;;;1.84;63.54;99766.72;1671319;84;21185;-41
2021/01/27 05:49:29;;;;;;;11.53;8.20;;;;;;;1.81;63.62;99770.30;1665420;85;21487;-41
2021/01/27 05:52:14;;;;;;;12.80;8.38;;;;;;;1.80;63.59;99766.43;1675484;85;21208;-41
2021/01/27 05:54:42;;;;;;;15.40;9.78;;;;;;;1.77;63.59;99770.48;1671993;83;21554;-42
2021/01/27 05:57:26;;;;;;;24.07;15.15;;;;;;;1.67;63.71;99772.09;1680245;84;21178;-39
2021/01/27 06:00:16;;;;;;;22.87;14.03;;;;;;;1.60;63.84;99773.20;1645155;85;21193;-41
2021/01/27 06:02:44;;;;;;;26.65;15.75;;;;;;;1.53;63.99;99769.52;1654928;85;21615;-43
2021/01/27 06:05:18;;;;;;;26.87;13.78;;;;;;;1.52;64.26;99775.23;1649658;85;21177;-41
2021/01/27 06:07:45;;;;;;;30.32;18.98;;;;;;;1.54;64.49;99776.47;1648316;85;21164;-41
2021/01/27 06:10:34;;;;;;;38.13;21.75;;;;;;;1.59;64.64;99790.33;1645745;85;21137;-40
2021/01/27 06:13:30;;;;;;;38.42;23.57;;;;;;;1.61;64.78;99793.77;1672201;85;21166;-40
2021/01/27 06:15:58;;;;;;;36.48;21.62;;;;;;;1.65;64.87;99791.00;1649620;85;21181;-41
2021/01/27 06:18:28;;;;;;;46.53;26.37;;;;;;;1.70;64.93;99788.22;1674671;84;21144;-42
2021/01/27 06:21:13;;;;;;;43.60;26.45;;;;;;;1.74;64.99;99789.85;1674537;84;21173;-43
2021/01/27 06:24:12;;;;;;;43.20;25.08;;;;;;;1.77;64.97;99791.06;1674843;84;21169;-45
2021/01/27 06:26:57;;;;;;;40.43;24.12;;;;;;;1.87;65.24;99783.27;1663539;85;21190;-42
2021/01/27 06:29:59;;;;;;;36.42;23.57;;;;;;;2.20;65.09;99786.11;1673392;84;21157;-43
2021/01/27 06:32:44;;;;;;;38.20;22.35;;;;;;;2.51;64.55;99781.91;1648047;85;21176;-42
2021/01/27 06:35:36;;;;;;;40.38;24.30;;;;;;;2.82;63.88;99790.84;1639028;87;21210;-42
2021/01/27 06:38:57;;;;;;;37.00;23.40;;;;;;;3.11;63.31;99783.16;1803638;78;22980;-42
2021/01/27 06:41:51;;;;;;;35.63;20.72;;;;;;;3.19;62.75;99778.91;1688229;83;21558;-43
2021/01/27 06:44:24;;;;;;;35.78;23.65;;;;;;;3.32;62.13;99787.19;1686499;83;21196;-42
2021/01/27 06:47:11;;;;;;;39.35;26.30;;;;;;;3.35;61.94;99781.78;1688389;83;21181;-42
2021/01/27 06:50:17;;;;;;;36.42;26.00;;;;;;;3.38;62.10;99783.86;1686089;83;21642;-39
2021/01/27 06:53:11;;;;;;;31.80;21.95;;;;;;;3.38;61.43;99781.22;1688725;83;21196;-41
2021/01/27 06:56:17;;;;;;;35.68;22.52;;;;;;;3.38;61.31;99775.95;1684406;83;21157;-38
2021/01/27 06:59:19;;;;;;;28.90;19.77;;;;;;;3.40;61.06;99761.38;1691306;81;21185;-37
2021/01/27 07:02:15;;;;;;;28.47;18.52;;;;;;;3.41;60.96;99760.00;1713456;81;21171;-41
2021/01/27 07:05:08;;;;;;;30.20;17.25;;;;;;;3.40;60.85;99760.94;1716620;81;21177;-39
2021/01/27 07:08:16;;;;;;;24.60;15.80;;;;;;;3.39;60.90;99762.30;1713404;81;21193;-46
2021/01/27 07:11:06;;;;;;;26.77;15.95;;;;;;;3.37;60.82;99761.03;1717716;81;21162;-46
2021/01/27 07:14:08;;;;;;;32.98;23.00;;;;;;;3.29;60.79;99755.69;1782028;78;28600;-46
2021/01/27 07:17:20;;;;;;;26.20;17.20;;;;;;;3.16;61.18;99761.91;1777728;79;21145;-46
2021/01/27 07:20:13;;;;;;;29.10;17.62;;;;;;;3.15;61.33;99766.33;1781140;79;21589;-46
2021/01/27 07:23:14;;;;;;;26.70;16.00;;;;;;;3.07;61.55;99767.52;1777693;79;21161;-46
2021/01/27 07:26:20;;;;;;;21.65;15.60;;;;;;;2.99;61.86;99768.67;1778200;79;21138;-45
2021/01/27 07:29:09;;;;;;;23.00;14.07;;;;;;;2.94;62.01;99767.14;1777594;79;21161;-43
2021/01/27 07:31:44;;;;;;;19.32;14.40;;;;;;;2.87;62.02;99763.88;1723510;81;21181;-44
2021/01/27 07:34:25;;;;;;;22.85;14.75;;;;;;;2.81;62.13;99767.61;1740486;81;22071;-44
2021/01/27 07:37:31;;;;;;;24.85;15.23;;;;;;;2.77;62.22;99766.02;1717855;82;21641;-45
2021/01/27 07:40:43;;;;;;;22.75;14.85;;;;;;;2.70;62.49;99765.85;1631478;86;21344;-44
2021/01/27 07:43:20;;;;;;;24.60;16.77;;;;;;;2.49;62.74;99764.00;1687995;83;21684;-45
2021/01/27 07:46:31;;;;;;;22.27;15.00;;;;;;;2.38;63.15;99758.67;1755788;78;23036;-45
2021/01/27 07:49:04;;;;;;;28.07;15.70;;;;;;;2.29;63.38;99753.75;1736764;80;21138;-44
2021/01/27 07:51:49;;;;;;;19.90;13.50;;;;;;;2.19;63.72;99758.91;1728121;82;21137;-43
2021/01/27 07:54:35;;;;;;;18.73;12.15;;;;;;;2.12;64.03;99756.13;1735851;82;21130;-43
2021/01/27 07:57:23;;;;;;;19.98;11.53;;;;;;;2.09;64.27;99753.58;1729626;80;21164;-44
2021/01/27 07:59:55;;;;;;;15.55;11.18;;;;;;;2.05;64.53;99758.56;1717642;82;21161;-42
2021/01/27 08:02:26;;;;;;;16.00;11.55;;;;;;;2.01;64.79;99762.20;1709743;82;21145;-43
2021/01/27 08:04:58;;;;;;;16.50;10.68;;;;;;;2.00;64.93;99765.29;1685959;82;21153;-45
2021/01/27 08:07:32;;;;;;;14.30;10.35;;;;;;;2.00;65.09;99763.13;1712862;82;21166;-43
2021/01/27 08:10:25;;;;;;;14.00;11.22;;;;;;;1.99;65.17;99767.53;1684850;82;21149;-44
2021/01/27 08:12:59;;;;;;;15.83;11.20;;;;;;;1.95;65.23;99770.70;1711590;82;21169;-43
2021/01/27 08:15:32;;;;;;;14.00;10.15;;;;;;;1.97;65.31;99769.81;1710633;82;21238;-44
2021/01/27 08:18:16;;;;;;;19.12;12.18;;;;;;;1.99;65.45;99765.33;1716323;82;21299;-43
2021/01/27 08:20:45;;;;;;;18.67;12.28;;;;;;;1.96;65.51;99764.98;1716345;82;21142;-45
2021/01/27 08:23:34;;;;;;;16.23;11.70;;;;;;;1.88;65.45;99763.93;1683277;83;21180;-45
2021/01/27 08:26:06;;;;;;;17.75;12.95;;;;;;;1.80;65.78;99762.48;1669410;84;21185;-45
2021/01/27 08:28:43;;;;;;;17.90;13.13;;;;;;;1.70;65.95;99761.94;1640059;84;22077;-44
2021/01/27 08:31:28;;;;;;;18.57;13.10;;;;;;;1.61;66.48;99768.80;1671512;84;21177;-45
2021/01/27 08:35:09;;;;;;;16.97;12.33;;;;;;;1.55;66.63;99769.87;1672379;84;22085;-44
2021/01/27 08:38:29;;;;;;;21.68;14.70;;;;;;;1.61;66.79;99755.20;1875472;75;28173;-44
2021/01/27 08:40:56;;;;;;;17.00;12.25;;;;;;;1.56;66.92;99754.48;1842263;76;21439;-45
2021/01/27 08:43:35;;;;;;;18.98;13.98;;;;;;;1.57;66.96;99750.12;1813118;76;21134;-45
2021/01/27 08:46:25;;;;;;;24.00;13.53;;;;;;;1.59;67.08;99757.47;1842668;76;21596;-46
2021/01/27 08:48:53;;;;;;;19.02;14.47;;;;;;;1.61;67.05;99763.54;1843714;76;21128;-47
2021/01/27 08:51:42;;;;;;;18.27;12.98;;;;;;;1.63;67.02;99751.21;1840104;76;21141;-46
2021/01/27 08:54:39;;;;;;;17.25;13.48;;;;;;;1.58;67.09;99752.67;1838930;76;21096;-44
2021/01/27 08:57:36;;;;;;;21.48;13.60;;;;;;;1.55;67.32;99756.73;1786333;78;21150;-45
2021/01/27 09:00:29;;;;;;;20.08;14.45;;;;;;;1.60;67.54;99761.84;1730898;80;21142;-43
2021/01/27 09:03:02;;;;;;;19.95;13.40;;;;;;;1.66;67.53;99751.10;1778075;78;21460;-46
2021/01/27 09:05:38;;;;;;;20.70;13.72;;;;;;;1.66;67.37;99750.67;1764798;79;21153;-46
2021/01/27 09:08:21;;;;;;;19.98;13.10;;;;;;;1.68;67.33;99754.09;1762796;79;21132;-47
2021/01/27 09:10:58;;;;;;;18.48;12.98;;;;;;;1.76;67.32;99756.92;1777811;78;22426;-46
2021/01/27 09:13:41;;;;;;;20.15;14.00;;;;;;;1.77;67.12;99751.62;1778663;78;21557;-44
2021/01/27 09:16:20;;;;;;;19.55;13.08;;;;;;;1.76;66.98;99749.88;1777320;78;21147;-44
2021/01/27 09:19:12;;;;;;;21.52;14.53;;;;;;;1.78;67.05;99753.79;1776740;78;21169;-44
2021/01/27 09:21:40;;;;;;;19.67;14.05;;;;;;;1.81;66.63;99754.53;1751678;78;21113;-44
2021/01/27 09:24:22;;;;;;;22.90;14.35;;;;;;;1.76;66.64;99750.34;1737074;79;21596;-44
2021/01/27 09:26:51;;;;;;;19.48;14.03;;;;;;;1.72;66.32;99751.77;1754056;79;21985;-45
2021/01/27 09:29:26;;;;;;;23.02;15.43;;;;;;;1.68;66.24;99749.29;1755992;79;21713;-46
2021/01/27 09:31:54;;;;;;;22.15;14.35;;;;;;;1.67;66.09;99745.81;1754689;79;21172;-46
2021/01/27 09:34:27;;;;;;;20.00;15.25;;;;;;;1.67;65.89;99760.73;1754969;79;21165;-45
2021/01/27 09:37:22;;;;;;;18.25;13.18;;;;;;;1.66;65.58;99755.94;1750621;79;21185;-47
2021/01/27 09:39:57;;;;;;;31.90;19.48;;;;;;;1.62;65.33;99760.02;1737421;81;21160;-45
2021/01/27 09:42:28;;;;;;;53.78;31.85;;;;;;;1.60;65.59;99764.47;1741761;81;21150;-46
2021/01/27 09:45:04;;;;;;;34.63;21.23;;;;;;;1.62;65.58;99761.34;1737469;81;21145;-44
2021/01/27 09:47:32;;;;;;;23.32;15.15;;;;;;;1.64;65.33;99760.84;1738787;81;21157;-46
2021/01/27 09:50:01;;;;;;;20.45;15.28;;;;;;;1.64;65.07;99752.95;1738736;81;21488;-45
2021/01/27 09:52:30;;;;;;;16.48;12.28;;;;;;;1.62;64.87;99750.36;1738784;81;21314;-47
2021/01/27 09:55:12;;;;;;;15.35;10.63;;;;;;;1.64;64.89;99740.66;1738329;81;21160;-48
2021/01/27 09:57:41;;;;;;;22.70;12.95;;;;;;;1.71;64.65;99739.55;1707140;81;21792;-43
2021/01/27 10:00:15;;;;;;;16.73;11.45;;;;;;;1.77;64.07;99726.64;1733408;81;21861;-42
2021/01/27 10:02:43;;;;;;;15.70;11.63;;;;;;;1.80;63.55;99731.79;1730186;81;21164;-42
2021/01/27 10:05:37;;;;;;;15.60;10.32;;;;;;;1.80;63.25;99733.10;1731655;81;21168;-40
2021/01/27 10:08:35;;;;;;;14.85;10.65;;;;;;;1.78;63.14;99728.81;1733434;81;21177;-43
2021/01/27 10:11:11;;;;;;;15.15;9.25;;;;;;;1.78;63.27;99725.72;1730297;81;21152;-43
2021/01/27 10:13:40;;;;;;;14.00;9.58;;;;;;;1.86;62.86;99722.82;1731673;81;21191;-57
2021/01/27 10:16:10;;;;;;;13.45;10.13;;;;;;;1.93;62.68;99721.70;1707288;81;21302;-43
2021/01/27 10:18:39;;;;;;;;;;;;;;;1.93;61.75;99726.50;1734865;81;21153;-43
2021/01/27 10:21:12;;;;;;;14.68;10.53;;;;;;;1.93;62.02;99726.50;1731473;81;20181;-44
2021/01/27 10:23:46;;;;;;;15.60;10.50;;;;;;;1.97;61.77;99719.84;1731006;81;21121;-43
2021/01/27 10:26:37;;;;;;;14.20;9.25;;;;;;;1.95;61.61;99720.73;1732167;81;21150;-44
2021/01/27 10:29:26;;;;;;;14.03;8.73;;;;;;;1.96;61.97;99725.53;1730720;81;21624;-42
2021/01/27 10:31:56;;;;;;;16.05;10.68;;;;;;;1.98;61.96;99728.97;1731868;81;21188;-44
2021/01/27 10:34:41;;;;;;;16.50;10.15;;;;;;;2.05;61.67;99720.42;1734541;81;21286;-46
2021/01/27 10:37:31;;;;;;;14.45;8.83;;;;;;;2.05;61.68;99712.07;1741704;79;21160;-43
2021/01/27 10:40:28;;;;;;;13.00;9.20;;;;;;;2.09;61.31;99705.80;1755990;79;22056;-41
2021/01/27 10:43:03;;;;;;;14.28;9.33;;;;;;;2.11;61.10;99710.98;1757105;79;21553;-45
2021/01/27 10:45:41;;;;;;;12.20;8.00;;;;;;;2.12;61.23;99714.03;1760543;79;21687;-45
2021/01/27 10:48:18;;;;;;;11.68;8.93;;;;;;;2.17;61.26;99708.16;1756588;79;21140;-44
2021/01/27 10:50:55;;;;;;;12.90;8.98;;;;;;;2.21;60.59;99705.79;1749007;79;21862;-44
2021/01/27 10:53:24;;;;;;;13.60;8.18;;;;;;;2.20;59.79;99696.66;1755162;79;21117;-40
2021/01/27 10:55:54;;;;;;;10.25;8.15;;;;;;;2.14;59.80;99697.71;1757114;79;21217;-48
2021/01/27 10:58:22;;;;;;;14.60;9.50;;;;;;;2.12;59.72;99696.47;1760051;79;21140;-44
2021/01/27 11:00:49;;;;;;;13.18;8.73;;;;;;;2.13;59.98;99692.91;1761616;79;21144;-44
2021/01/27 11:03:17;;;;;;;13.43;8.33;;;;;;;2.16;59.96;99687.53;1760741;79;21262;-43
2021/01/27 11:05:46;;;;;;;11.88;8.38;;;;;;;2.18;59.96;99690.13;1758020;79;22000;-44
2021/01/27 11:08:27;;;;;;;12.50;8.38;;;;;;;2.23;59.78;99680.75;1758891;79;21152;-45
2021/01/27 11:10:56;;;;;;;14.35;8.38;;;;;;;2.21;59.57;99690.47;1764876;79;21156;-43
2021/01/27 11:13:24;;;;;;;11.90;8.25;;;;;;;2.15;59.44;99690.24;1768732;79;21651;-45
2021/01/27 11:15:51;;;;;;;10.03;7.35;;;;;;;2.15;59.45;99679.72;1769569;79;21156;-44
2021/01/27 11:18:19;;;;;;;11.12;7.47;;;;;;;2.16;59.55;99684.05;1765734;79;21462;-45
2021/01/27 11:20:48;;;;;;;12.65;8.50;;;;;;;2.17;59.64;99681.84;1764003;79;21612;-44
2021/01/27 11:23:20;;;;;;;12.30;8.45;;;;;;;2.19;59.73;99681.30;1755182;79;21222;-44
2021/01/27 11:25:52;;;;;;;12.78;8.30;;;;;;;2.25;59.66;99677.61;1762443;79;21141;-45
2021/01/27 11:28:22;;;;;;;;;;;;;;;2.26;59.52;99678.00;1759169;79;21534;-43
2021/01/27 11:30:50;;;;;;;10.65;6.90;;;;;;;2.26;59.51;99677.53;1760398;79;20160;-43
2021/01/27 11:33:31;;;;;;;10.65;7.80;;;;;;;2.22;59.35;99670.69;1765767;79;21565;-45
2021/01/27 11:50:39;;;;;;;11.93;7.78;;;;;;;2.10;59.93;99675.08;1814792;76;23065;-41
2021/01/27 11:53:07;;;;;;;10.08;6.60;;;;;;;2.02;59.82;99674.52;1795993;78;21141;-41
2021/01/27 11:55:34;;;;;;;13.20;7.15;;;;;;;2.00;59.78;99677.19;1798471;78;21151;-47
2021/01/27 11:58:02;;;;;;;10.55;7.50;;;;;;;2.00;59.43;99681.59;1795787;78;21156;-45
2021/01/27 12:00:30;;;;;;;13.32;7.95;;;;;;;1.93;59.70;99676.53;1734718;80;21140;-42
2021/01/27 12:02:58;;;;;;;9.23;7.12;;;;;;;1.90;59.94;99666.59;1734418;81;21134;-45
2021/01/27 12:05:26;;;;;;;9.45;7.33;;;;;;;1.91;60.09;99667.84;1730593;81;21160;-42
2021/01/27 12:07:57;;;;;;;8.18;6.22;;;;;;;1.93;59.41;99668.64;1710089;82;21161;-42
2021/01/27 12:10:25;;;;;;;10.30;7.67;;;;;;;1.90;59.29;99666.13;1708524;82;21149;-41
2021/01/27 12:12:53;;;;;;;9.03;6.22;;;;;;;1.88;58.97;99670.58;1716281;81;21617;-43
2021/01/27 12:15:22;;;;;;;8.10;5.53;;;;;;;1.88;59.00;99668.41;1729324;81;21148;-42
2021/01/27 12:18:10;;;;;;;9.35;5.65;;;;;;;1.89;58.99;99664.43;1731369;81;21278;-44
2021/01/27 12:20:40;;;;;;;8.70;5.67;;;;;;;1.92;59.09;99664.77;1716058;82;21770;-43
2021/01/27 12:23:08;;;;;;;6.75;4.70;;;;;;;1.93;58.58;99663.84;1712434;82;21157;-44
2021/01/27 12:25:37;;;;;;;6.55;4.85;;;;;;;1.94;58.64;99665.55;1723509;81;21160;-44
2021/01/27 12:28:05;;;;;;;6.50;4.05;;;;;;;1.97;58.42;99661.98;1706687;82;21145;-40
2021/01/27 12:30:32;;;;;;;7.25;4.35;;;;;;;2.03;58.39;99667.86;1718157;81;21166;-44
2021/01/27 12:33:03;;;;;;;7.05;3.75;;;;;;;2.07;57.87;99663.36;1725073;81;21173;-46
2021/01/27 12:35:34;;;;;;;7.50;3.92;;;;;;;2.04;57.89;99661.70;1718199;81;21185;-43
2021/01/27 12:38:02;;;;;;;7.05;4.12;;;;;;;2.05;57.12;99661.23;1696058;83;21664;-41